Terminal Aerodrome Forecast
Issued by NWS

Current Version | Previous Version | Graphics & Text | Print | Product List | Glossary On
Versions: 1 2 3 4 5 6 7 8 9 10 11 12 13 14 15 16 17 18
000
FTUS41 KRNK 180524
TAFLWB
TAF
KLWB 180524Z 1806/1906 VRB03KT P6SM SCT150
     FM190000 19009KT P6SM BKN020 OVC035
     FM190100 20009KT P6SM VCSH OVC015
     FM190300 23009KT P6SM -SHRA OVC008 WS020/21040KT
     FM190500 27011KT P6SM -SHRA OVC020=

USA.gov is the U.S. government's official web portal to all federal, state and local government web resources and services.